AirNav   Everest Fuels
 
 461 users online  

98TN Landing at River's Edge Airport
Blaine, Tennessee, USA

GOING TO BLAINE?


FAA INFORMATION EFFECTIVE 10 SEPTEMBER 2020

Location

FAA Identifier: 98TN
Lat/Long: 36-08-33.0000N 083-36-15.0000W
36-08.550000N 083-36.250000W
36.1425000,-83.6041667
(estimated)
Elevation: 1019 ft. / 311 m
From city: 4 miles S of BLAINE, TN
Time zone: UTC -4 (UTC -5 during Standard Time)
Zip code: 37820

Airport Operations

Airport use: Private use. Permission required prior to landing
Activation date: 03/2008
Control tower: no
ARTCC: ATLANTA CENTER
FSS: NASHVILLE FLIGHT SERVICE STATION
Attendance: IREG
Wind indicator: yes
Segmented circle: no

Airport Communications

UNICOM: 122.725
WX AWOS-3 at MOR (11 nm E): 126.725 (423-587-5886)
WX AWOS-3 at DKX (17 nm SW): 125.375 (865-579-6151)
WX AWOS-3 at GKT (17 nm S): 126.875 (865-429-5401)

Nearby radio navigation aids

VOR radial/distance  VOR name  Freq  Var
VXVr048/20.1VOLUNTEER VORTAC116.4003W
SOTr312/34.1SNOWBIRD VORTAC108.8004W

 
NDB name  Hdg/Dist  Freq  Var  ID
JEFFERSON291/6.534604WJXT .--- -..- -
DULANEY278/34.626307WDYQ -.. -.-- --.-
ROGERSVILLE249/39.632907WRVN .-. ...- -.

Airport Services

Runway Information

Runway 14/32

Dimensions: 3000 x 50 ft. / 914 x 15 m
Surface: asphalt
RUNWAY 14  RUNWAY 32
Traffic pattern: leftright

Airport Ownership and Management from official FAA records

Ownership: Privately-owned
Owner: REMOTE AREA MEDICAL
2200 STOCK CREEK BLVD
ROCKFORD, TN 37853
Phone 865-579-1530
Manager: JEFFREY EASTMAN
2200 STOCK CREEK BLVD
ROCKFORD, TN 37853
Phone 865-579-1530
JEFFREY EASTMAN

Airport Operational Statistics

Aircraft based on the field: 1
Single engine airplanes: 1
    

Additional Remarks

679 FT LGTD TWR 5NM NE; 630 FT LGTD TWR 5 NM SE; 542 FT LGTD TWR 7 NM W.
FOR CD CTC ATLANTA ARTCC AT 770-210-7692.

Instrument Procedures

There are no published instrument procedures at 98TN.

Some nearby airports with instrument procedures:

KMOR - Moore-Murrell Airport (11 nm E)
3A2 - New Tazewell Municipal Airport (16 nm N)
KDKX - Knoxville Downtown Island Airport (17 nm SW)
KGKT - Gatlinburg-Pigeon Forge Airport (17 nm S)
KTYS - Mc Ghee Tyson Airport (28 nm SW)
 
Loc | Ops | Rwys | IFR | FBO | Links
Com | Nav | Svcs | Stats | Notes
Aerial photo
WARNING: Photo may not be current or correct
Aerial photo of 98TN (Landing at River's Edge Airport)
Photo taken 12-Dec-2009

Do you have a better or more recent aerial photo of Landing at River's Edge Airport that you would like to share? If so, please send us your photo.

 
Sectional chart

 
Airport distance calculator
Flying to Landing at River's Edge Airport? Find the distance to fly.

From to 98TN

Sunrise and sunset
Times for 18-Sep-2020
 Local
(UTC-4)
 Zulu
(UTC)
Morning civil twilight06:5510:55
Sunrise07:2111:21
Sunset19:3523:35
Evening civil twilight20:0100:01

Current date and time
Zulu (UTC)  18-Sep-2020 06:31:07
Local (UTC-4)  18-Sep-2020 02:31:07
 
METAR
KMOR 
11nm E 
180615Z AUTO 00000KT 10SM BKN037 BKN060 18/18 A2992 RMK A01
KDKX 
17nm SW 
180615Z AUTO 00000KT 10SM CLR 20/18 A2992 RMK A01
KGKT 
17nm S 
180615Z AUTO 00000KT 10SM CLR 19/19 A2991 RMK A01
TAF
NOTAMs
Click for the latest NOTAMs
NOTAMs are issued by the DoD/FAA and will open in a separate window not controlled by AirNav.

 

 
 

Would you like to see your business listed on this page?

 If your business provides an interesting product or service to pilots, flight crews, aircraft, or users of the Landing at River's Edge Airport, you should consider listing it here.  To start the listing process, click on the button below
 
Add a business
 

Other Pages about Landing at River's Edge Airport

Update a link
 
Copyright © AirNav, LLC. All rights reserved. Privacy Policy  Contact